createdAt,value
2022-11-08T00:00:44.278Z,9.52
2022-11-08T00:03:11.726Z,9.95
2022-11-08T00:05:57.896Z,9.40
2022-11-08T00:08:43.959Z,9.65
2022-11-08T00:11:29.811Z,9.10
2022-11-08T00:14:00.186Z,8.80
2022-11-08T00:16:28.613Z,8.43
2022-11-08T00:18:55.998Z,8.82
2022-11-08T00:21:23.324Z,8.68
2022-11-08T00:23:50.707Z,8.73
2022-11-08T00:26:18.094Z,8.15
2022-11-08T00:28:45.626Z,8.75
2022-11-08T00:31:12.937Z,7.53
2022-11-08T00:33:40.299Z,7.75
2022-11-08T00:36:09.278Z,8.05
2022-11-08T00:38:36.688Z,7.75
2022-11-08T00:41:04.061Z,7.65
2022-11-08T00:43:31.518Z,7.43
2022-11-08T00:45:58.863Z,7.90
2022-11-08T00:48:26.241Z,8.43
2022-11-08T00:50:53.625Z,8.70
2022-11-08T00:53:21.147Z,8.68
2022-11-08T00:55:48.405Z,7.82
2022-11-08T00:58:16.102Z,8.18
2022-11-08T01:00:43.748Z,7.75
2022-11-08T01:03:20.012Z,7.47
2022-11-08T01:05:54.035Z,7.63
2022-11-08T01:08:23.166Z,7.13
2022-11-08T01:10:52.911Z,8.02
2022-11-08T01:13:20.653Z,7.93
2022-11-08T01:15:48.427Z,7.67
2022-11-08T01:18:17.372Z,7.93
2022-11-08T01:20:46.224Z,7.57
2022-11-08T01:23:14.461Z,7.53
2022-11-08T01:25:45.457Z,7.35
2022-11-08T01:28:13.372Z,6.85
2022-11-08T01:30:42.263Z,7.00
2022-11-08T01:33:09.989Z,6.65
2022-11-08T01:35:38.044Z,6.95
2022-11-08T01:38:05.890Z,7.03
2022-11-08T01:40:33.417Z,6.88
2022-11-08T01:43:17.376Z,7.22
2022-11-08T01:46:09.441Z,7.15
2022-11-08T01:48:42.178Z,6.75
2022-11-08T01:51:13.636Z,7.20
2022-11-08T01:53:41.019Z,7.60
2022-11-08T01:56:11.018Z,7.32
2022-11-08T01:58:41.464Z,6.75
2022-11-08T02:01:09.451Z,6.72
2022-11-08T02:03:36.956Z,7.13
2022-11-08T02:06:04.632Z,7.05
2022-11-08T02:08:42.992Z,6.82
2022-11-08T02:11:14.298Z,7.20
2022-11-08T02:13:41.701Z,7.63
2022-11-08T02:16:14.617Z,6.28
2022-11-08T02:18:43.913Z,6.63
2022-11-08T02:21:20.333Z,6.47
2022-11-08T02:23:52.849Z,6.53
2022-11-08T02:26:25.152Z,6.43
2022-11-08T02:28:52.640Z,6.32
2022-11-08T02:31:20.369Z,6.32
2022-11-08T02:33:48.894Z,6.38
2022-11-08T02:36:20.742Z,5.87
2022-11-08T02:38:54.031Z,5.65
2022-11-08T02:41:21.425Z,5.80
2022-11-08T02:43:48.742Z,5.63
2022-11-08T02:46:16.099Z,6.03
2022-11-08T02:48:43.463Z,5.80
2022-11-08T02:51:10.756Z,5.63
2022-11-08T02:53:38.044Z,5.57
2022-11-08T02:56:05.503Z,5.72
2022-11-08T02:58:32.917Z,6.43
2022-11-08T03:01:00.350Z,6.10
2022-11-08T03:03:27.690Z,6.57
2022-11-08T03:05:56.957Z,6.30
2022-11-08T03:08:24.261Z,7.10
2022-11-08T03:10:51.573Z,7.17
2022-11-08T03:13:18.989Z,7.17
2022-11-08T03:15:46.284Z,7.07
2022-11-08T03:18:13.653Z,6.77
2022-11-08T03:20:40.922Z,7.00
2022-11-08T03:23:08.602Z,8.05
2022-11-08T03:25:36.033Z,7.10
2022-11-08T03:28:05.457Z,7.07
2022-11-08T03:30:33.749Z,6.95
2022-11-08T03:33:01.763Z,7.18
2022-11-08T03:35:29.220Z,7.45
2022-11-08T03:37:57.791Z,6.85
2022-11-08T03:40:25.878Z,6.77
2022-11-08T03:42:55.645Z,6.85
2022-11-08T03:45:23.009Z,6.40
2022-11-08T03:47:53.118Z,6.50
2022-11-08T03:50:20.486Z,6.40
2022-11-08T03:52:50.475Z,6.22
2022-11-08T03:55:19.302Z,6.72
2022-11-08T03:57:48.204Z,6.40
2022-11-08T04:00:18.965Z,5.80
2022-11-08T04:02:46.395Z,5.95
2022-11-08T04:05:14.842Z,5.60
2022-11-08T04:07:42.157Z,5.47
2022-11-08T04:10:10.793Z,5.03
2022-11-08T04:13:01.257Z,5.57
2022-11-08T04:15:30.648Z,5.30
2022-11-08T04:18:17.435Z,6.43
2022-11-08T04:21:05.504Z,6.38
2022-11-08T04:23:35.105Z,5.90
2022-11-08T04:26:04.790Z,6.10
2022-11-08T04:28:36.867Z,6.82
2022-11-08T04:31:07.455Z,7.22
2022-11-08T04:33:35.519Z,6.97
2022-11-08T04:36:13.829Z,6.47
2022-11-08T04:38:41.151Z,7.32
2022-11-08T04:41:13.748Z,6.97
2022-11-08T04:43:41.692Z,6.40
2022-11-08T04:46:14.247Z,6.07
2022-11-08T04:48:42.290Z,6.30
2022-11-08T04:51:26.756Z,6.05
2022-11-08T04:54:00.739Z,6.03
2022-11-08T04:56:29.808Z,5.60
2022-11-08T04:58:58.990Z,6.07
2022-11-08T05:01:31.611Z,5.87
2022-11-08T05:03:59.268Z,6.00
2022-11-08T05:06:29.881Z,6.00
2022-11-08T05:08:58.986Z,6.25
2022-11-08T05:11:28.808Z,5.75
2022-11-08T05:13:57.047Z,6.65
2022-11-08T05:16:27.060Z,6.13
2022-11-08T05:18:54.539Z,6.40
2022-11-08T05:21:40.892Z,6.30
2022-11-08T05:24:10.975Z,6.13
2022-11-08T05:26:42.245Z,5.97
2022-11-08T05:29:10.029Z,6.07
2022-11-08T05:31:38.313Z,5.65
2022-11-08T05:34:07.266Z,5.80
2022-11-08T05:36:35.046Z,5.90
2022-11-08T05:39:02.612Z,6.68
2022-11-08T05:41:30.141Z,6.45
2022-11-08T05:43:57.905Z,5.85
2022-11-08T05:46:25.233Z,6.68
2022-11-08T05:48:52.936Z,6.63
2022-11-08T05:51:20.747Z,6.68
2022-11-08T05:53:48.744Z,6.57
2022-11-08T05:56:17.077Z,6.82
2022-11-08T05:58:45.544Z,6.78
2022-11-08T06:01:18.265Z,7.03
2022-11-08T06:03:46.779Z,6.17
2022-11-08T06:06:16.983Z,6.63
2022-11-08T06:08:49.028Z,6.53
2022-11-08T06:11:21.737Z,6.78
2022-11-08T06:13:49.709Z,6.40
2022-11-08T06:16:18.703Z,6.70
2022-11-08T06:18:46.065Z,6.60
2022-11-08T06:21:15.034Z,6.50
2022-11-08T06:23:42.729Z,7.07
2022-11-08T06:26:10.353Z,7.30
2022-11-08T06:28:38.272Z,7.10
2022-11-08T06:31:08.261Z,7.10
2022-11-08T06:33:36.084Z,7.50
2022-11-08T06:36:03.571Z,7.43
2022-11-08T06:38:33.622Z,7.20
2022-11-08T06:41:01.990Z,7.20
2022-11-08T06:43:29.617Z,6.90
2022-11-08T06:46:03.249Z,6.97
2022-11-08T06:48:36.155Z,7.22
2022-11-08T06:51:04.546Z,6.50
2022-11-08T06:53:32.622Z,6.57
2022-11-08T06:56:00.876Z,6.40
2022-11-08T06:58:28.755Z,7.60
2022-11-08T07:00:56.505Z,6.65
2022-11-08T07:03:24.099Z,6.23
2022-11-08T07:05:51.716Z,6.93
2022-11-08T07:08:23.661Z,6.70
2022-11-08T07:10:52.327Z,7.22
2022-11-08T07:13:20.421Z,6.80
2022-11-08T07:15:48.664Z,6.53
2022-11-08T07:18:17.329Z,7.22
2022-11-08T07:20:45.244Z,7.28
2022-11-08T07:23:13.350Z,7.10
2022-11-08T07:25:40.992Z,7.05
2022-11-08T07:28:09.364Z,7.22
2022-11-08T07:30:37.186Z,7.40
2022-11-08T07:33:04.497Z,6.93
2022-11-08T07:35:33.460Z,6.80
2022-11-08T07:38:00.857Z,7.00
2022-11-08T07:40:28.320Z,6.85
2022-11-08T07:43:17.511Z,6.60
2022-11-08T07:45:57.319Z,6.57
2022-11-08T07:48:25.647Z,7.27
2022-11-08T07:50:53.115Z,6.32
2022-11-08T07:53:21.475Z,6.77
2022-11-08T07:55:49.120Z,6.75
2022-11-08T07:58:17.020Z,6.63
2022-11-08T08:00:45.310Z,6.85
2022-11-08T08:03:14.376Z,6.18
2022-11-08T08:05:50.363Z,6.87
2022-11-08T08:08:17.857Z,6.72
2022-11-08T08:10:45.192Z,6.72
2022-11-08T08:13:12.622Z,6.20
2022-11-08T08:15:40.161Z,5.50
2022-11-08T08:18:09.064Z,6.20
2022-11-08T08:20:37.883Z,6.03
2022-11-08T08:23:06.749Z,6.50
2022-11-08T08:25:34.183Z,6.20
2022-11-08T08:28:01.930Z,6.80
2022-11-08T08:30:31.117Z,6.72
2022-11-08T08:33:26.707Z,6.50
2022-11-08T08:35:52.901Z,7.28
2022-11-08T08:38:20.472Z,6.93
2022-11-08T08:40:47.853Z,7.07
2022-11-08T08:43:15.379Z,7.72
2022-11-08T08:45:43.665Z,8.13
2022-11-08T08:48:11.147Z,7.75
2022-11-08T08:50:38.588Z,7.90
2022-11-08T08:53:06.545Z,7.88
2022-11-08T08:55:35.508Z,7.43
2022-11-08T08:58:03.518Z,8.00
2022-11-08T09:03:18.509Z,7.35
2022-11-08T09:05:46.919Z,7.95
2022-11-08T09:08:15.125Z,7.20
2022-11-08T09:10:43.273Z,8.25
2022-11-08T09:13:10.716Z,8.02
2022-11-08T09:15:39.466Z,8.02
2022-11-08T09:18:07.348Z,7.82
2022-11-08T09:20:34.734Z,8.60
2022-11-08T09:23:03.237Z,9.38
2022-11-08T09:25:31.457Z,10.68
2022-11-08T09:27:58.817Z,11.27
2022-11-08T09:30:26.822Z,12.32
2022-11-08T09:33:00.767Z,11.93
2022-11-08T09:35:30.358Z,11.05
2022-11-08T09:37:58.575Z,10.67
2022-11-08T09:40:39.635Z,10.60
2022-11-08T09:43:34.587Z,10.00
2022-11-08T09:46:02.034Z,11.75
2022-11-08T09:48:36.124Z,10.60
2022-11-08T09:51:22.584Z,9.65
2022-11-08T09:53:52.412Z,7.45
2022-11-08T09:56:24.021Z,6.88
2022-11-08T09:58:54.532Z,7.47
2022-11-08T10:01:26.844Z,7.07
2022-11-08T10:03:57.339Z,6.78
2022-11-08T10:06:35.672Z,7.03
2022-11-08T10:09:34.706Z,6.47
2022-11-08T10:12:40.536Z,6.38
2022-11-08T10:15:33.153Z,6.47
2022-11-08T10:18:18.993Z,6.90
2022-11-08T10:21:00.439Z,6.82
2022-11-08T10:23:30.842Z,6.72
2022-11-08T10:26:28.282Z,7.10
2022-11-08T10:29:02.077Z,7.47
2022-11-08T10:31:33.915Z,7.22
2022-11-08T10:34:03.214Z,7.78
2022-11-08T10:36:37.448Z,7.50
2022-11-08T10:39:33.993Z,7.30
2022-11-08T10:42:27.310Z,7.78
2022-11-08T10:44:54.735Z,7.78
2022-11-08T10:47:27.202Z,7.75
2022-11-08T10:49:58.322Z,8.15
2022-11-08T10:52:36.856Z,8.00
2022-11-08T10:55:27.779Z,7.90
2022-11-08T10:57:55.063Z,7.93
2022-11-08T11:00:22.301Z,8.20
2022-11-08T11:03:02.348Z,7.25
2022-11-08T11:05:43.133Z,7.35
2022-11-08T11:08:10.411Z,10.05
2022-11-08T11:10:42.625Z,9.82
2022-11-08T11:13:20.604Z,8.40
2022-11-08T11:15:53.430Z,8.55
2022-11-08T11:18:29.812Z,7.77
2022-11-08T11:21:17.533Z,7.45
2022-11-08T11:23:52.745Z,7.63
2022-11-08T11:26:34.872Z,7.50
2022-11-08T11:29:05.483Z,7.32
2022-11-08T11:31:40.659Z,7.13
2022-11-08T11:34:17.010Z,7.47
2022-11-08T11:37:10.741Z,7.43
2022-11-08T11:39:44.301Z,7.22
2022-11-08T11:42:44.353Z,7.47
2022-11-08T11:45:23.258Z,6.88
2022-11-08T11:48:01.313Z,7.33
2022-11-08T11:50:33.963Z,7.60
2022-11-08T11:53:05.081Z,6.55
2022-11-08T11:55:56.888Z,6.35
2022-11-08T11:58:44.016Z,6.20
2022-11-08T12:01:28.947Z,6.97
2022-11-08T17:51:03.970Z,15.95
2022-11-08T17:53:31.411Z,15.73
2022-11-08T17:56:01.673Z,16.13
2022-11-08T17:58:29.252Z,15.90
2022-11-08T18:00:58.452Z,14.40
2022-11-08T18:03:26.739Z,14.52
2022-11-08T18:06:02.659Z,14.00
2022-11-08T18:08:32.255Z,14.73
2022-11-08T18:11:00.255Z,14.32
2022-11-08T18:13:28.817Z,13.05
2022-11-08T18:16:04.827Z,14.45
2022-11-08T18:18:32.336Z,13.20
2022-11-08T18:20:59.693Z,14.57
2022-11-08T18:23:27.072Z,14.40
2022-11-08T18:25:56.163Z,13.20
2022-11-08T18:28:24.272Z,13.98
2022-11-08T18:30:52.133Z,12.80
2022-11-08T18:33:21.023Z,11.93
2022-11-08T18:35:48.953Z,14.52
2022-11-08T18:38:16.368Z,16.25
2022-11-08T18:40:45.720Z,14.50
2022-11-08T18:43:13.089Z,12.93
2022-11-08T18:45:40.537Z,12.93
2022-11-08T18:48:08.398Z,12.98
2022-11-08T18:50:35.963Z,14.02
2022-11-08T18:53:06.938Z,13.25
2022-11-08T18:55:34.776Z,14.10
2022-11-08T18:58:02.681Z,13.75
2022-11-08T19:00:32.855Z,13.18
2022-11-08T19:03:02.835Z,12.55
2022-11-08T19:05:30.110Z,12.93
2022-11-08T19:07:57.435Z,12.30
2022-11-08T19:10:24.772Z,12.75
2022-11-08T19:12:52.122Z,14.05
2022-11-08T19:15:20.873Z,14.52
2022-11-08T19:17:53.798Z,13.32
2022-11-08T19:20:23.943Z,12.68
2022-11-08T19:22:55.487Z,12.90
2022-11-08T19:25:22.794Z,13.65
2022-11-08T19:27:50.185Z,16.65
2022-11-08T19:30:17.866Z,16.85
2022-11-08T19:32:45.666Z,16.83
2022-11-08T19:35:13.177Z,16.48
2022-11-08T19:37:40.503Z,15.05
2022-11-08T19:40:08.579Z,14.70
2022-11-08T19:42:35.888Z,15.90
2022-11-08T19:45:03.258Z,14.93
2022-11-08T19:47:33.234Z,17.05
2022-11-08T19:50:00.696Z,15.15
2022-11-08T19:52:28.145Z,14.35
2022-11-08T19:54:55.492Z,14.00
2022-11-08T19:57:22.949Z,14.35
2022-11-08T19:59:51.200Z,13.82
2022-11-08T20:02:18.585Z,14.10
2022-11-08T20:04:45.969Z,15.43
2022-11-08T20:07:14.792Z,15.10
2022-11-08T20:09:42.169Z,14.90
2022-11-08T20:12:09.547Z,14.55
2022-11-08T20:14:37.763Z,14.00
2022-11-08T20:17:05.059Z,15.15
2022-11-08T20:19:32.528Z,14.40
2022-11-08T20:21:59.902Z,15.25
2022-11-08T20:24:27.285Z,14.90
2022-11-08T20:26:55.303Z,14.95
2022-11-08T20:29:23.057Z,14.35
2022-11-08T20:31:51.983Z,15.35
2022-11-08T20:34:19.407Z,16.38
2022-11-08T20:36:46.907Z,16.23
2022-11-08T20:39:14.948Z,17.45
2022-11-08T20:41:42.633Z,16.15
2022-11-08T20:44:11.044Z,17.33
2022-11-08T20:46:38.990Z,15.95
2022-11-08T20:49:07.085Z,16.27
2022-11-08T20:51:35.432Z,15.60
2022-11-08T20:54:03.268Z,15.57
2022-11-08T20:56:34.299Z,15.38
2022-11-08T20:59:02.467Z,15.80
2022-11-08T21:01:32.819Z,16.25
2022-11-08T21:04:00.933Z,16.63
2022-11-08T21:06:33.011Z,16.90
2022-11-08T21:09:16.549Z,17.83
2022-11-08T21:11:50.283Z,19.10
2022-11-08T21:14:18.397Z,19.20
2022-11-08T21:17:14.576Z,17.92
2022-11-08T21:19:33.201Z,18.13
2022-11-08T21:22:15.598Z,17.83
2022-11-08T21:24:44.161Z,17.80
2022-11-08T21:27:11.877Z,17.60
2022-11-08T21:29:39.294Z,17.35
2022-11-08T21:32:07.037Z,18.52
2022-11-08T21:34:34.486Z,17.40
2022-11-08T21:37:01.787Z,17.17
2022-11-08T21:39:29.126Z,17.38
2022-11-08T21:41:56.558Z,17.40
2022-11-08T21:44:23.886Z,17.10
2022-11-08T21:46:51.224Z,17.55
2022-11-08T21:49:18.591Z,18.58
2022-11-08T21:51:45.899Z,17.08
2022-11-08T21:54:13.276Z,17.15
2022-11-08T21:56:40.714Z,16.27
2022-11-08T21:59:08.099Z,15.63
2022-11-08T22:01:35.482Z,16.80
2022-11-08T22:04:02.899Z,15.55
2022-11-08T22:06:30.403Z,16.85
2022-11-08T22:08:57.809Z,16.77
2022-11-08T22:11:25.207Z,16.42
2022-11-08T22:13:52.564Z,16.35
2022-11-08T22:16:19.970Z,15.75
2022-11-08T22:19:04.186Z,15.88
2022-11-08T22:21:39.311Z,16.50
2022-11-08T22:24:09.862Z,16.20
2022-11-08T22:26:37.752Z,15.63
2022-11-08T22:29:05.648Z,14.80
2022-11-08T22:31:33.638Z,16.95
2022-11-08T22:34:01.177Z,16.25
2022-11-08T22:36:28.760Z,14.90
2022-11-08T22:38:56.445Z,15.77
2022-11-08T22:41:24.255Z,14.30
2022-11-08T22:43:51.759Z,13.15
2022-11-08T22:46:19.500Z,13.07
2022-11-08T22:48:47.079Z,13.70
2022-11-08T22:51:14.730Z,12.98
2022-11-08T22:53:42.322Z,13.05
2022-11-08T22:56:11.725Z,12.65
2022-11-08T22:58:39.806Z,12.18
2022-11-08T23:01:10.972Z,12.00
2022-11-08T23:03:38.475Z,11.63
2022-11-08T23:06:05.980Z,11.57
2022-11-08T23:08:33.398Z,12.73
2022-11-08T23:11:20.006Z,11.25
2022-11-08T23:14:06.539Z,11.43
2022-11-08T23:16:35.981Z,11.32
2022-11-08T23:19:25.674Z,10.73
2022-11-08T23:22:12.353Z,11.65
2022-11-08T23:24:40.632Z,11.55
2022-11-08T23:27:26.809Z,10.40
2022-11-08T23:30:12.705Z,10.65
2022-11-08T23:32:45.405Z,10.70
2022-11-08T23:35:13.678Z,9.35
2022-11-08T23:37:41.418Z,10.05
2022-11-08T23:40:29.218Z,9.95
2022-11-08T23:43:22.541Z,9.60
2022-11-08T23:45:50.128Z,9.57
2022-11-08T23:48:17.740Z,9.57
2022-11-08T23:50:53.926Z,8.73
2022-11-08T23:53:25.098Z,8.98
2022-11-08T23:55:56.098Z,8.85
2022-11-08T23:58:24.787Z,8.00
